WetterOnline ( http://www.wetteronline.de )

Wetter aktuell Döttesfeld

Aktuelles Wetter: Andernach (75m)

6-stündlich | Neueste Meldungen
Ortszeit Temperatur Wetter
Sa, 20.01. 19:00 1.7° C Sprühregen
Sa, 20.01. 13:00 4.2° C leichter Regen
Sa, 20.01. 7:00 1.9° C bewölkt
Sa, 20.01. 1:00 1.3° C bewölkt
Fr, 19.01. 19:00 4.1° C bewölkt
Fr, 19.01. 13:00 6.1° C wolkig
Fr, 19.01. 7:00 3.3° C leicht bewölkt
Fr, 19.01. 1:00 3.0° C starker Regen
Ortszeit Temperatur Wetter
Sa, 20.01. 21:30 1.6° C leichter Regen
Sa, 20.01. 21:20 1.6° C leichter Regen
Sa, 20.01. 21:10 1.6° C Sprühregen
Sa, 20.01. 21:00 1.5° C leichter Regen
Sa, 20.01. 20:50 1.5° C leichter Regen
Sa, 20.01. 20:40 1.6° C leichter Regen
Sa, 20.01. 20:30 1.8° C bedeckt
Sa, 20.01. 20:00 1.7° C Sprühregen
Sa, 20.01. 19:30 1.7° C Sprühregen
Sa, 20.01. 19:00 1.7° C Sprühregen
Sa, 20.01. 18:30 1.6° C Sprühregen
Ortszeit Relative Feuchte Sichtweite
Sa, 20.01. 19:00 95% 19 km
Sa, 20.01. 13:00 86% 18 km
Sa, 20.01. 7:00 85% 70 km
Sa, 20.01. 1:00 86% 35 km
Fr, 19.01. 19:00 78% 65 km
Fr, 19.01. 13:00 60% 60 km
Fr, 19.01. 7:00 79% 70 km
Fr, 19.01. 1:00 94% 2.3 km
Ortszeit Relative Feuchte Sichtweite
Sa, 20.01. 21:30 97% 5.0 km
Sa, 20.01. 21:20 97% -
Sa, 20.01. 21:10 96% -
Sa, 20.01. 21:00 97% 5.0 km
Sa, 20.01. 20:50 97% -
Sa, 20.01. 20:40 96% -
Sa, 20.01. 20:30 98% 9 km
Sa, 20.01. 20:00 95% 15 km
Sa, 20.01. 19:30 96% 14 km
Sa, 20.01. 19:00 95% 19 km
Sa, 20.01. 18:30 94% 19 km
Ortszeit Niederschlagsmenge Niederschlagsart
Sa, 20.01. 19:00 7 l/m2 in 12 Std. Schnee, Regen
Sa, 20.01. 13:00 0.2 l/m2 in 6 Std. Regen
Sa, 20.01. 7:00 0.1 l/m2 in 12 Std. Regen
Sa, 20.01. 1:00 0.0 l/m2 in 6 Std. -
Fr, 19.01. 19:00 0.1 l/m2 in 12 Std. -
Fr, 19.01. 13:00 0.1 l/m2 in 6 Std. Regen
Fr, 19.01. 7:00 2 l/m2 in 12 Std. Regen
Fr, 19.01. 1:00 2 l/m2 in 6 Std. Regen
Ortszeit Niederschlagsmenge Niederschlagsart
Sa, 20.01. 21:30 0.1 l/m2 in 1 Std. -
Sa, 20.01. 21:20 keine Meldung -
Sa, 20.01. 21:10 keine Meldung -
Sa, 20.01. 21:00 0.1 l/m2 in 1 Std. Regen
Sa, 20.01. 20:50 keine Meldung -
Sa, 20.01. 20:40 keine Meldung -
Sa, 20.01. 20:30 0.1 l/m2 in 1 Std. Schnee
Sa, 20.01. 20:00 0.1 l/m2 in 1 Std. Regen
Sa, 20.01. 19:30 0.1 l/m2 in 1 Std. -
Sa, 20.01. 19:00 0.3 l/m2 in 1 Std. Schnee, Regen
Sa, 20.01. 18:30 0.2 l/m2 in 1 Std. -
Ortszeit Stärke Spitze Richtung
km/h Bft. km/h Grad Sektor
Sa, 20.01. 19:00 4 1 14 50° NO
Sa, 20.01. 13:00 11 2 22 190° S
Sa, 20.01. 7:00 6 1 24 290° W
Sa, 20.01. 1:00 4 1 22 320° NW
Fr, 19.01. 19:00 11 2 32 220° SW
Fr, 19.01. 13:00 17 3 33 250° W
Fr, 19.01. 7:00 9 2 30 250° W
Fr, 19.01. 1:00 11 2 17 350° N
Ortszeit Stärke Spitze Richtung
km/h Bft. km/h Grad Sektor
Sa, 20.01. 21:30 4 1 7 220° SW
Sa, 20.01. 21:20 4 1 - 220° SW
Sa, 20.01. 21:10 4 1 - 210° SW
Sa, 20.01. 21:00 4 1 7 180° S
Sa, 20.01. 20:50 4 1 - 180° S
Sa, 20.01. 20:40 4 1 - 180° S
Sa, 20.01. 20:30 4 1 4 210° SW
Sa, 20.01. 20:00 0 0 7 - -
Sa, 20.01. 19:30 0 0 7 - -
Sa, 20.01. 19:00 4 1 7 50° NO
Sa, 20.01. 18:30 7 2 7 90° O
Ortszeit Untergrenze Bedeckung Gattung
total tief tief mittel hoch
Sa, 20.01. 19:00 120 m 8/8 8/8 - - -
Sa, 20.01. 13:00 480 m 7/8 7/8 - - -
Sa, 20.01. 7:00 1800 m 7/8 7/8 - - -
Sa, 20.01. 1:00 1470 m 8/8 5/8 - - -
Fr, 19.01. 19:00 1500 m 7/8 - - - -
Fr, 19.01. 13:00 1080 m 8/8 4/8 - - -
Fr, 19.01. 7:00 1500 m 4/8 2/8 - - -
Fr, 19.01. 1:00 480 m 7/8 8/8 - - -
Ortszeit Bedeckungsgrad in Achtel und Wolkenuntergrenze
Sa, 20.01. 21:30 1(150m) 3(480m) 7(630m)
Sa, 20.01. 21:20 1(150m) 3(480m) 7(630m)
Sa, 20.01. 21:10 4(480m) 8(660m)
Sa, 20.01. 21:00 2(300m) 7(480m) 8(780m)
Sa, 20.01. 20:50 2(300m) 7(480m) 8(780m)
Sa, 20.01. 20:40 5(330m) 8(510m) 8(780m)
Sa, 20.01. 20:30 3(330m) 8(510m) 8(840m)
Sa, 20.01. 20:00 2(150m) 7(330m) 8(510m)
Sa, 20.01. 19:30 4(150m) 7(330m) 8(510m)
Sa, 20.01. 19:00 4(120m) 8(330m)
Sa, 20.01. 18:30 4(120m) 8(330m)
Ortszeit Luftdruck NN (hPa) Tendenz (hPa in 3 Std.)
Sa, 20.01. 19:00 1000 - 1,3
Sa, 20.01. 13:00 1005 - 3,4
Sa, 20.01. 7:00 1010 - 1,2
Sa, 20.01. 1:00 1012 + 0,3
Fr, 19.01. 19:00 1011 0,0
Fr, 19.01. 13:00 1011 + 0,9
Fr, 19.01. 7:00 1007 + 1,3
Fr, 19.01. 1:00 1004 + 0,3
Ortszeit Luftdruck NN (hPa) Tendenz (hPa in 3 Std.)
Sa, 20.01. 21:30 1001 + 1,0
Sa, 20.01. 21:20 1001 keine Meldung
Sa, 20.01. 21:10 1001 keine Meldung
Sa, 20.01. 21:00 1001 + 0,9
Sa, 20.01. 20:50 1001 keine Meldung
Sa, 20.01. 20:40 1001 keine Meldung
Sa, 20.01. 20:30 1000 + 0,3
Sa, 20.01. 20:00 1000 - 0,5
Sa, 20.01. 19:30 1000 - 0,9
Sa, 20.01. 19:00 1000 - 1,3
Sa, 20.01. 18:30 1000 - 1,8
Ortszeit Schneehöhe (cm)
Sa, 20.01. 19:00 0
Sa, 20.01. 13:00 0
Sa, 20.01. 7:00 0
Sa, 20.01. 1:00 0
Fr, 19.01. 19:00 0
Fr, 19.01. 13:00 0
Fr, 19.01. 7:00 0
Fr, 19.01. 1:00 0
Ortszeit Schneehöhe (cm)
Sa, 20.01. 21:30 0
Sa, 20.01. 21:20 0
Sa, 20.01. 21:10 0
Sa, 20.01. 21:00 0
Sa, 20.01. 20:50 0
Sa, 20.01. 20:40 0
Sa, 20.01. 20:30 0
Sa, 20.01. 20:00 0
Sa, 20.01. 19:30 0
Sa, 20.01. 19:00 0
Sa, 20.01. 18:30 0
Link zu dieser Seite / Seite empfehlen

Das Wetter in ...